首页
METAR-TAF:

METAR-TAF

机场 :

Northwest Arkansas Regional Airport

费耶特维尔, 阿肯色州, 美国

纬度: 36-16-55N, 经度: 094-18-25W, 海拔: 392米

当前天气观测

该预报发布于1小时和7分钟前的17:53 UTC
风速7节,风向南转西南
温度 29°C
湿度 62%
气压 1026 hPa
能見度: 16.1公里
少量云层高于4400英尺
少量云层高于7000英尺

METAR: KXNA 201753Z 20007KT 10SM FEW044 FEW070 29/21 A3029 RMK AO2 SLP241 T02940206 10294 20222 58003

时间: 14:00 (19:00 UTC)

预报

该预报发布于1小时和40分钟前的17:20 UTC
预报有效从20日的 18点(UTC)到 21日的 18点(UTC)
风速6节,风向东南
能見度: 10公里
散云层高于3500英尺
散云层高于20000英尺
从 21日的 0300点(UTC)
风速3节,风向多变
能見度: 10公里
散云层高于10000英尺
多云层高于20000英尺
从 21日的 1400点(UTC)
风速6节,风向
能見度: 10公里
散云层高于2500英尺
多云层高于20000英尺

TAF: KXNA 201720Z 2018/2118 13006KT P6SM SCT035 SCT200 FM210300 VRB03KT P6SM SCT100 BKN200 FM211400 18006KT P6SM SCT025 BKN200

超过4000个机场的气象观测和天气预报(METAR&TAF报告)。

可查询的气象台以黄色和红色小点在地图上表示。

将鼠标移到小点上方,可查看气象台名称。

然后点击查看天气观测和预报。

如需切换地图:点击带黑十字的绿色按钮放大地图;点击带横线的绿色按钮缩小地图;或者点击绿色箭头查看邻近地区的地图。


METAR-TAF: